Time;durP1;ratioP1;P1;durP2;ratioP2;P2;SDS_P1;SDS_P2;PMS_P1;PMS_P2;Temp;Humidity;BMP_temperature;BMP_pressure;BME280_temperature;BME280_humidity;BME280_pressure;Samples;Min_cycle;Max_cycle;Signal;HPM_P1;HPM_P2
2023/09/25 00:00:30;;;;;;;1.50;1.10;;;15.40;96.00;;;;;;5006964;28;20029;-18
2023/09/25 00:02:56;;;;;;;1.83;0.98;;;15.40;96.00;;;;;;4962031;28;20125;-17
2023/09/25 00:05:23;;;;;;;0.90;0.80;;;15.40;96.00;;;;;;5002722;27;20019;-18
2023/09/25 00:07:48;;;;;;;1.13;1.00;;;15.30;96.00;;;;;;4997075;28;20139;-17
2023/09/25 00:10:14;;;;;;;1.87;0.90;;;15.40;96.10;;;;;;5022343;28;20030;-18
2023/09/25 00:12:40;;;;;;;1.48;0.80;;;15.30;96.10;;;;;;4982149;28;20177;-17
2023/09/25 00:15:06;;;;;;;1.37;0.80;;;15.30;96.20;;;;;;4979537;28;20044;-18
2023/09/25 00:17:32;;;;;;;1.70;0.85;;;15.30;96.30;;;;;;4979354;28;20427;-18
2023/09/25 00:19:58;;;;;;;1.35;0.90;;;15.30;96.30;;;;;;5009561;27;20029;-17
2023/09/25 00:22:24;;;;;;;1.20;0.90;;;15.30;96.30;;;;;;4997266;27;20064;-18
2023/09/25 00:24:50;;;;;;;1.60;0.87;;;15.30;96.70;;;;;;4997745;28;20044;-17
2023/09/25 00:27:16;;;;;;;1.50;0.90;;;15.20;96.40;;;;;;5008579;27;20030;-17
2023/09/25 00:29:42;;;;;;;1.48;0.90;;;15.30;96.40;;;;;;4973980;28;20240;-17
2023/09/25 00:32:08;;;;;;;1.33;0.90;;;15.30;96.50;;;;;;5011652;28;20146;-17
2023/09/25 00:34:33;;;;;;;1.30;0.93;;;15.20;96.50;;;;;;4953381;28;20069;-18
2023/09/25 00:36:59;;;;;;;1.10;0.90;;;15.20;96.50;;;;;;4997357;27;20101;-17
2023/09/25 00:39:25;;;;;;;1.40;0.90;;;15.20;96.50;;;;;;4995531;28;20349;-18
2023/09/25 00:41:51;;;;;;;0.95;0.80;;;15.20;96.60;;;;;;4996945;28;20300;-17
2023/09/25 00:44:17;;;;;;;1.80;1.00;;;15.20;96.60;;;;;;5006112;28;20030;-18
2023/09/25 00:46:43;;;;;;;1.00;0.90;;;15.20;96.60;;;;;;4981852;28;20056;-17
2023/09/25 00:49:10;;;;;;;1.58;1.10;;;15.20;96.60;;;;;;4954546;28;20240;-17
2023/09/25 00:51:37;;;;;;;1.23;0.80;;;15.20;96.60;;;;;;4982927;28;20122;-18
2023/09/25 00:54:03;;;;;;;1.40;0.80;;;15.20;96.60;;;;;;4981875;28;20037;-17
2023/09/25 00:56:29;;;;;;;1.23;0.90;;;15.20;96.60;;;;;;5003208;28;20037;-18
2023/09/25 00:58:55;;;;;;;1.10;0.80;;;15.20;96.60;;;;;;5006698;28;20370;-18
2023/09/25 01:01:22;;;;;;;0.88;0.80;;;15.20;96.60;;;;;;5062820;28;20086;-18
2023/09/25 01:03:48;;;;;;;1.93;0.80;;;15.20;96.60;;;;;;5080091;23;20260;-83
2023/09/25 01:06:14;;;;;;;1.55;1.00;;;15.10;96.60;;;;;;5081352;28;20024;-83
2023/09/25 01:08:40;;;;;;;1.15;0.77;;;15.10;96.60;;;;;;5079030;28;20649;-83
2023/09/25 01:11:08;;;;;;;1.52;1.00;;;15.10;96.60;;;;;;5078147;28;20063;-83
2023/09/25 01:13:34;;;;;;;1.57;0.90;;;15.10;96.60;;;;;;5082902;28;20284;-84
2023/09/25 01:15:59;;;;;;;1.65;1.00;;;15.10;96.60;;;;;;5099921;28;20099;-84
2023/09/25 01:18:26;;;;;;;1.85;0.98;;;;;;;;;;5065627;28;20027;-83
2023/09/25 01:20:51;;;;;;;1.83;0.80;;;15.00;96.30;;;;;;5059565;28;20032;-83
2023/09/25 01:23:18;;;;;;;1.70;1.00;;;15.00;96.60;;;;;;5084794;28;20025;-84
2023/09/25 01:25:44;;;;;;;1.05;0.82;;;14.60;98.30;;;;;;5074577;28;20020;-83
2023/09/25 01:28:10;;;;;;;1.30;0.82;;;14.90;96.60;;;;;;5082791;28;20028;-83
2023/09/25 01:30:36;;;;;;;1.50;1.00;;;14.90;96.60;;;;;;5082299;28;20028;-83
2023/09/25 01:33:02;;;;;;;1.40;0.90;;;14.90;96.60;;;;;;5082702;28;20032;-83
2023/09/25 01:35:28;;;;;;;1.30;1.00;;;14.90;96.60;;;;;;5083246;28;20065;-83
2023/09/25 01:37:58;;;;;;;0.80;0.70;;;14.80;96.60;;;;;;5055940;28;20040;-84
2023/09/25 01:40:24;;;;;;;1.42;0.80;;;14.80;96.50;;;;;;5052109;28;20036;-84
2023/09/25 01:42:50;;;;;;;1.30;1.00;;;14.70;96.60;;;;;;5080237;28;20027;-83
2023/09/25 01:45:18;;;;;;;1.17;0.73;;;14.70;96.60;;;;;;5082492;28;20020;-83
2023/09/25 01:47:51;;;;;;;1.73;0.90;;;14.70;96.70;;;;;;5079944;28;20024;-83
2023/09/25 01:50:18;;;;;;;1.17;0.80;;;14.60;96.50;;;;;;5059556;28;20009;-83
2023/09/25 01:52:47;;;;;;;1.48;0.90;;;14.60;96.70;;;;;;5072749;28;20032;-83
2023/09/25 01:55:14;;;;;;;1.17;0.80;;;14.60;96.70;;;;;;5054860;28;20441;-83
2023/09/25 01:57:40;;;;;;;2.00;1.00;;;14.60;96.80;;;;;;5082545;28;20456;-83
2023/09/25 02:00:10;;;;;;;1.40;0.90;;;14.60;96.90;;;;;;5081984;28;20016;-83
2023/09/25 02:02:42;;;;;;;1.40;0.80;;;14.60;96.90;;;;;;5078082;28;20056;-83
2023/09/25 02:05:08;;;;;;;1.20;0.80;;;14.50;96.80;;;;;;5041927;28;20399;-83
2023/09/25 02:07:34;;;;;;;1.00;0.70;;;14.50;96.90;;;;;;5069694;28;20068;-83
2023/09/25 02:10:00;;;;;;;1.00;0.73;;;14.50;96.90;;;;;;5033379;28;20521;-83
2023/09/25 02:12:26;;;;;;;1.48;0.90;;;14.50;96.90;;;;;;5065200;28;20118;-85
2023/09/25 02:14:57;;;;;;;1.47;0.83;;;14.40;96.90;;;;;;5067085;28;20395;-84
2023/09/25 02:17:22;;;;;;;1.75;1.00;;;14.40;96.90;;;;;;5088260;28;20021;-85
2023/09/25 02:19:48;;;;;;;1.20;0.90;;;14.40;96.90;;;;;;5057316;28;20036;-85
2023/09/25 02:22:14;;;;;;;2.53;1.00;;;14.40;97.00;;;;;;5076919;28;20021;-84
2023/09/25 02:24:40;;;;;;;1.30;0.90;;;14.30;96.90;;;;;;5075148;28;20075;-84
2023/09/25 02:27:05;;;;;;;1.27;0.83;;;14.30;97.00;;;;;;5063751;28;20193;-86
2023/09/25 02:29:31;;;;;;;1.10;0.80;;;14.30;97.00;;;;;;5066547;28;20051;-86
2023/09/25 02:31:57;;;;;;;1.20;0.80;;;14.30;97.00;;;;;;5069096;28;20074;-85
2023/09/25 02:34:23;;;;;;;2.33;1.07;;;14.30;97.00;;;;;;5074456;28;20033;-86
2023/09/25 02:36:49;;;;;;;1.13;0.80;;;14.30;97.10;;;;;;5063486;28;20079;-83
2023/09/25 02:39:15;;;;;;;1.95;0.90;;;14.20;97.10;;;;;;5052064;28;20022;-85
2023/09/25 02:41:41;;;;;;;1.20;0.82;;;14.20;97.10;;;;;;5068159;28;20089;-83
2023/09/25 02:44:07;;;;;;;2.13;1.10;;;14.20;97.10;;;;;;5064248;28;20332;-85
2023/09/25 02:46:33;;;;;;;1.98;0.80;;;14.20;97.10;;;;;;5060720;28;20044;-84
2023/09/25 02:48:59;;;;;;;1.13;0.75;;;14.20;97.20;;;;;;5092455;28;20052;-85
2023/09/25 02:51:25;;;;;;;1.60;0.80;;;14.10;97.10;;;;;;5073277;28;20502;-85
2023/09/25 02:53:53;;;;;;;1.20;0.80;;;14.10;97.20;;;;;;5061140;28;20044;-84
2023/09/25 02:56:19;;;;;;;0.90;0.70;;;14.10;97.10;;;;;;5055592;28;20489;-85
2023/09/25 02:58:46;;;;;;;1.17;0.80;;;14.10;97.20;;;;;;5048112;28;20024;-84
2023/09/25 03:01:12;;;;;;;1.08;0.70;;;14.10;97.20;;;;;;5091585;28;20059;-85
2023/09/25 03:03:39;;;;;;;1.58;0.90;;;14.10;97.30;;;;;;5074054;28;20048;-84
2023/09/25 03:06:05;;;;;;;1.08;0.80;;;14.10;97.30;;;;;;5069245;28;20597;-85
2023/09/25 03:08:31;;;;;;;1.23;0.90;;;14.00;97.30;;;;;;5062217;28;20036;-84
2023/09/25 03:10:56;;;;;;;2.05;0.90;;;14.00;97.30;;;;;;5063219;28;20029;-85
2023/09/25 03:13:23;;;;;;;1.57;0.90;;;14.00;97.40;;;;;;5070572;28;20041;-86
2023/09/25 03:15:49;;;;;;;1.45;0.93;;;14.00;97.40;;;;;;5067244;28;20486;-87
2023/09/25 03:18:16;;;;;;;1.85;1.10;;;14.00;97.40;;;;;;5086929;28;20078;-86
2023/09/25 03:20:42;;;;;;;1.52;0.82;;;;;;;;;;5068997;28;20406;-84
2023/09/25 03:23:09;;;;;;;1.80;0.90;;;14.00;97.20;;;;;;5081121;28;20025;-84
2023/09/25 03:25:35;;;;;;;1.20;0.83;;;13.90;97.50;;;;;;5067838;28;20115;-84
2023/09/25 03:28:02;;;;;;;1.48;0.90;;;14.00;97.50;;;;;;5089060;28;20067;-85
2023/09/25 03:30:29;;;;;;;2.20;0.90;;;14.00;97.50;;;;;;5069656;28;20025;-86
2023/09/25 03:32:55;;;;;;;1.45;0.82;;;13.90;97.50;;;;;;5060699;28;20077;-84
2023/09/25 03:35:21;;;;;;;1.25;0.77;;;13.90;97.50;;;;;;5059754;28;20028;-85
2023/09/25 03:37:47;;;;;;;2.20;1.20;;;13.90;97.60;;;;;;5086651;28;20020;-85
2023/09/25 03:40:13;;;;;;;2.22;0.80;;;13.90;97.70;;;;;;5081166;28;20055;-85
2023/09/25 03:42:42;;;;;;;1.58;1.00;;;13.90;97.70;;;;;;5054738;28;20035;-84
2023/09/25 03:45:09;;;;;;;1.33;0.80;;;13.90;97.70;;;;;;5066451;28;20602;-85
2023/09/25 03:47:35;;;;;;;1.67;1.03;;;13.80;97.70;;;;;;5067171;28;20040;-84
2023/09/25 03:50:03;;;;;;;1.70;0.90;;;13.80;97.70;;;;;;5081933;28;20033;-86
2023/09/25 03:52:28;;;;;;;1.30;0.85;;;13.80;97.70;;;;;;5057166;28;20028;-84
2023/09/25 03:54:54;;;;;;;1.40;0.87;;;13.80;97.80;;;;;;5053308;28;20264;-85
2023/09/25 03:57:20;;;;;;;1.63;0.90;;;13.80;97.80;;;;;;5042809;28;20501;-84
2023/09/25 03:59:46;;;;;;;1.80;1.00;;;13.80;97.80;;;;;;5071815;28;20063;-84
2023/09/25 04:02:11;;;;;;;1.00;0.80;;;13.80;97.80;;;;;;5068780;28;20494;-84
2023/09/25 04:04:38;;;;;;;1.70;0.95;;;;;;;;;;5089516;28;20028;-86
2023/09/25 04:07:03;;;;;;;2.15;1.00;;;13.80;97.70;;;;;;5069908;28;20119;-85
2023/09/25 04:09:30;;;;;;;1.83;0.70;;;13.80;97.90;;;;;;5083474;28;20167;-84
2023/09/25 04:11:57;;;;;;;1.33;0.80;;;13.80;98.00;;;;;;5062433;28;20047;-84
2023/09/25 04:14:23;;;;;;;1.85;0.82;;;13.80;98.10;;;;;;5086669;28;20075;-83
2023/09/25 04:16:49;;;;;;;1.45;1.00;;;13.80;98.10;;;;;;5067461;28;20565;-85
2023/09/25 04:19:15;;;;;;;0.93;0.80;;;13.80;98.20;;;;;;5087055;28;20017;-85
2023/09/25 04:21:42;;;;;;;1.17;0.73;;;13.80;98.20;;;;;;5062921;28;20445;-84
2023/09/25 04:24:11;;;;;;;1.30;0.80;;;13.80;98.20;;;;;;5081179;28;20449;-84
2023/09/25 04:26:40;;;;;;;1.08;0.85;;;13.80;98.30;;;;;;5058470;28;20028;-84
2023/09/25 04:29:09;;;;;;;1.70;0.98;;;13.80;98.30;;;;;;5051073;28;20024;-84
2023/09/25 04:31:36;;;;;;;2.57;0.93;;;13.80;98.30;;;;;;5061881;28;20090;-85
2023/09/25 04:34:03;;;;;;;1.10;0.90;;;;;;;;;;5079819;28;20052;-83
2023/09/25 04:36:29;;;;;;;1.38;0.80;;;13.80;98.10;;;;;;5067378;28;20040;-83
2023/09/25 04:38:55;;;;;;;1.00;0.70;;;13.80;98.30;;;;;;5064038;28;20100;-83
2023/09/25 04:41:21;;;;;;;1.03;0.90;;;13.40;99.90;;;;;;5056553;28;20857;-83
2023/09/25 04:43:47;;;;;;;1.85;0.95;;;13.80;98.30;;;;;;5064484;28;20402;-83
2023/09/25 04:46:13;;;;;;;1.60;0.80;;;13.80;98.30;;;;;;5073484;28;20040;-83
2023/09/25 04:48:39;;;;;;;1.50;0.90;;;13.80;98.20;;;;;;5077499;28;20040;-83
2023/09/25 04:51:04;;;;;;;1.45;0.90;;;13.80;98.20;;;;;;5085623;28;20024;-83
2023/09/25 04:53:30;;;;;;;2.13;1.00;;;13.80;98.20;;;;;;5073453;28;20017;-83
2023/09/25 04:55:56;;;;;;;1.20;0.90;;;13.70;98.10;;;;;;5052333;28;20036;-84
2023/09/25 04:58:22;;;;;;;1.35;0.98;;;13.70;98.10;;;;;;5055809;28;20190;-82
2023/09/25 05:00:48;;;;;;;1.50;0.90;;;13.70;98.10;;;;;;5081479;28;20436;-83
2023/09/25 05:03:14;;;;;;;1.23;0.80;;;13.60;98.10;;;;;;5072025;28;20040;-83
2023/09/25 05:05:39;;;;;;;1.20;0.90;;;13.60;98.10;;;;;;5057586;28;20039;-83
2023/09/25 05:08:05;;;;;;;1.27;0.90;;;13.60;98.10;;;;;;5063100;28;20029;-83
2023/09/25 05:10:31;;;;;;;1.15;0.82;;;13.60;98.10;;;;;;5064480;28;20627;-83
2023/09/25 05:12:57;;;;;;;1.63;0.97;;;13.60;98.20;;;;;;5072132;28;20064;-83
2023/09/25 05:15:24;;;;;;;1.45;0.85;;;13.60;98.20;;;;;;5065032;28;20029;-83
2023/09/25 05:17:49;;;;;;;1.80;0.80;;;13.20;99.90;;;;;;5054885;28;20848;-83
2023/09/25 05:20:22;;;;;;;1.30;0.90;;;13.50;98.30;;;;;;5058401;28;20340;-83
2023/09/25 05:22:49;;;;;;;1.33;0.80;;;13.50;98.20;;;;;;5045665;28;20838;-83
2023/09/25 05:25:17;;;;;;;1.20;0.95;;;13.50;98.40;;;;;;5021425;28;20196;-84
2023/09/25 05:27:45;;;;;;;1.08;0.90;;;13.50;98.40;;;;;;5013735;28;20554;-83
2023/09/25 05:30:12;;;;;;;1.25;1.00;;;13.50;98.40;;;;;;5043168;28;20024;-83
2023/09/25 05:32:40;;;;;;;1.10;0.90;;;13.50;98.40;;;;;;5068892;28;20036;-83
2023/09/25 05:35:08;;;;;;;1.33;0.90;;;13.50;98.40;;;;;;5044038;28;20066;-83
2023/09/25 05:37:34;;;;;;;2.05;1.00;;;13.50;98.50;;;;;;5069216;28;20392;-83
2023/09/25 05:40:01;;;;;;;1.20;0.90;;;14.70;99.90;;;;;;5065546;28;20028;-83
2023/09/25 05:42:27;;;;;;;1.45;0.93;;;13.40;98.50;;;;;;5087570;28;20082;-81
2023/09/25 05:44:52;;;;;;;1.60;0.80;;;13.50;98.60;;;;;;5075543;28;20029;-82
2023/09/25 05:47:18;;;;;;;1.65;0.90;;;13.40;98.60;;;;;;5053422;28;20024;-81
2023/09/25 05:49:44;;;;;;;1.05;0.80;;;13.40;98.70;;;;;;5069557;28;20029;-82
2023/09/25 05:52:10;;;;;;;1.70;1.03;;;13.40;98.80;;;;;;5063957;28;20033;-82
2023/09/25 05:54:35;;;;;;;1.38;0.85;;;13.40;99.00;;;;;;5049691;28;20027;-82
2023/09/25 05:57:01;;;;;;;0.80;0.60;;;13.50;99.20;;;;;;5075144;28;20031;-82
2023/09/25 05:59:28;;;;;;;1.92;0.90;;;13.50;99.20;;;;;;5044403;28;20498;-82
2023/09/25 06:01:53;;;;;;;1.33;0.88;;;13.50;99.30;;;;;;5070433;28;20099;-81
2023/09/25 06:04:19;;;;;;;1.20;0.83;;;13.60;99.40;;;;;;5077562;28;20324;-82
2023/09/25 06:06:45;;;;;;;1.58;1.08;;;12.50;99.90;;;;;;5060968;28;20285;-82
2023/09/25 06:09:15;;;;;;;1.20;0.83;;;13.60;99.50;;;;;;5042113;28;20020;-82
2023/09/25 06:11:42;;;;;;;1.10;0.85;;;13.60;99.50;;;;;;5037994;28;20660;-82
2023/09/25 06:14:09;;;;;;;1.27;0.90;;;13.70;99.50;;;;;;5068266;28;20020;-83
2023/09/25 06:16:42;;;;;;;1.42;0.88;;;13.70;99.60;;;;;;5039263;28;20020;-81
2023/09/25 06:19:08;;;;;;;1.30;0.90;;;13.70;99.60;;;;;;5064208;28;20395;-82
2023/09/25 06:21:34;;;;;;;1.48;0.85;;;13.80;99.70;;;;;;5066632;28;20033;-82
2023/09/25 06:24:01;;;;;;;1.27;0.90;;;13.80;99.80;;;;;;5062614;28;20024;-82
2023/09/25 06:26:27;;;;;;;1.50;0.90;;;13.80;99.90;;;;;;5065825;28;20496;-81
2023/09/25 06:28:54;;;;;;;1.50;1.00;;;13.80;99.90;;;;;;5043345;28;20044;-81
2023/09/25 06:31:23;;;;;;;1.75;0.95;;;13.90;99.90;;;;;;5073273;28;20455;-82
2023/09/25 06:33:50;;;;;;;1.65;0.88;;;13.90;99.90;;;;;;5069858;28;20020;-82
2023/09/25 06:36:16;;;;;;;1.13;0.90;;;14.00;99.90;;;;;;5050227;28;20082;-82
2023/09/25 06:38:42;;;;;;;1.43;0.90;;;14.10;99.90;;;;;;5067741;28;20115;-81
2023/09/25 06:41:13;;;;;;;1.15;0.70;;;14.10;99.90;;;;;;5052585;28;20494;-83
2023/09/25 06:43:39;;;;;;;1.10;0.88;;;14.20;99.90;;;;;;5070561;28;20028;-81
2023/09/25 06:46:05;;;;;;;1.30;1.00;;;14.30;99.90;;;;;;5035827;28;20059;-81
2023/09/25 06:48:32;;;;;;;1.38;0.88;;;14.40;99.90;;;;;;5067216;28;20060;-81
2023/09/25 06:50:58;;;;;;;1.95;0.90;;;14.40;99.90;;;;;;5069267;28;20028;-82
2023/09/25 06:53:24;;;;;;;1.40;0.80;;;14.50;99.90;;;;;;5055491;28;20066;-82
2023/09/25 06:55:50;;;;;;;1.20;0.90;;;14.60;99.90;;;;;;5063891;28;20035;-81
2023/09/25 06:58:16;;;;;;;1.00;0.80;;;14.70;99.90;;;;;;5055209;28;20231;-82
2023/09/25 07:00:45;;;;;;;1.05;0.80;;;14.80;99.90;;;;;;5057902;28;20108;-82
2023/09/25 07:03:11;;;;;;;1.42;0.90;;;14.80;99.90;;;;;;5063012;28;20101;-83
2023/09/25 07:05:36;;;;;;;1.50;1.00;;;14.90;99.90;;;;;;5089167;28;20718;-83
2023/09/25 07:08:03;;;;;;;4.63;1.02;;;15.10;99.90;;;;;;5078759;28;20021;-82
2023/09/25 07:10:30;;;;;;;1.10;0.90;;;15.10;99.90;;;;;;5062158;28;20282;-83
2023/09/25 07:12:56;;;;;;;1.27;0.90;;;15.20;99.90;;;;;;5082615;28;20024;-82
2023/09/25 07:15:23;;;;;;;1.00;0.90;;;15.30;99.90;;;;;;5066048;28;20028;-83
2023/09/25 07:17:48;;;;;;;1.13;0.80;;;15.40;99.90;;;;;;5035690;28;20653;-82
2023/09/25 07:20:14;;;;;;;1.20;0.90;;;15.50;99.90;;;;;;5065600;28;20103;-82
2023/09/25 07:22:41;;;;;;;1.67;1.00;;;15.70;99.90;;;;;;5044245;28;20032;-82
2023/09/25 07:25:08;;;;;;;2.40;0.98;;;15.70;99.90;;;;;;5063618;28;20039;-82
2023/09/25 07:27:35;;;;;;;2.15;1.00;;;15.90;99.90;;;;;;5082393;28;20016;-82
2023/09/25 07:30:03;;;;;;;1.38;1.00;;;16.70;99.90;;;;;;5062989;28;20530;-83
2023/09/25 07:32:30;;;;;;;1.30;0.90;;;16.40;99.90;;;;;;5075064;28;20092;-84
2023/09/25 07:34:57;;;;;;;1.60;0.80;;;18.10;99.90;;;;;;5098134;22;20243;-16
2023/09/25 07:37:23;;;;;;;1.60;1.05;;;17.70;99.90;;;;;;5002367;27;22048;-16
2023/09/25 07:39:48;;;;;;;1.10;0.90;;;17.20;99.90;;;;;;5090899;27;20036;-15
2023/09/25 07:42:15;;;;;;;1.60;1.10;;;17.50;99.90;;;;;;5019759;27;20319;-16
2023/09/25 07:44:42;;;;;;;1.30;0.90;;;17.80;99.90;;;;;;5023548;27;20734;-16
2023/09/25 07:47:10;;;;;;;1.23;0.93;;;18.10;99.90;;;;;;5021409;27;20029;-16
2023/09/25 07:49:45;;;;;;;1.10;0.73;;;18.40;99.90;;;;;;5011735;27;20089;-16
2023/09/25 07:52:15;;;;;;;1.20;0.93;;;18.60;99.90;;;;;;5018050;27;20032;-16
2023/09/25 07:54:48;;;;;;;1.17;0.93;;;18.70;99.90;;;;;;5019972;27;20037;-16
2023/09/25 07:57:15;;;;;;;1.60;0.80;;;18.90;99.90;;;;;;5023885;27;20622;-16
2023/09/25 07:59:45;;;;;;;1.30;0.80;;;19.00;99.90;;;;;;5099007;27;20071;-16
2023/09/25 08:02:19;;;;;;;1.00;0.80;;;19.50;99.90;;;;;;5011772;27;20028;-16
2023/09/25 08:04:46;;;;;;;1.10;1.00;;;19.30;99.90;;;;;;5008444;28;20112;-16
2023/09/25 08:07:12;;;;;;;1.42;0.90;;;19.50;99.90;;;;;;5022540;28;20120;-16
2023/09/25 08:09:38;;;;;;;1.43;1.00;;;19.70;99.90;;;;;;5012440;27;20043;-17
2023/09/25 08:12:05;;;;;;;1.88;0.90;;;19.90;99.90;;;;;;5021776;27;20040;-16
2023/09/25 08:14:31;;;;;;;1.48;0.80;;;20.20;99.90;;;;;;5018478;28;20066;-16
2023/09/25 08:16:58;;;;;;;1.45;0.90;;;18.00;99.90;;;;;;5003554;28;20650;-16
2023/09/25 08:19:24;;;;;;;1.53;1.00;;;20.50;99.90;;;;;;5004952;28;20107;-16
2023/09/25 08:21:53;;;;;;;1.88;1.00;;;20.70;99.90;;;;;;5016158;28;20021;-17
2023/09/25 08:24:19;;;;;;;1.58;0.80;;;20.80;99.90;;;;;;5034837;28;20017;-15
2023/09/25 08:26:48;;;;;;;0.98;0.80;;;21.00;99.90;;;;;;4989759;28;20472;-15
2023/09/25 08:29:15;;;;;;;1.00;0.77;;;21.10;99.90;;;;;;5027139;27;20029;-15
2023/09/25 08:31:44;;;;;;;2.72;0.95;;;21.90;99.90;;;;;;5017613;27;20940;-15
2023/09/25 08:34:11;;;;;;;1.23;0.85;;;21.30;99.90;;;;;;5000044;27;20041;-15
2023/09/25 08:36:37;;;;;;;1.98;0.88;;;21.50;99.90;;;;;;5038973;28;20021;-15
2023/09/25 08:39:04;;;;;;;1.30;0.90;;;21.60;99.90;;;;;;5032754;28;20467;-15
2023/09/25 08:41:31;;;;;;;1.10;0.80;;;21.70;99.90;;;;;;5018051;27;20363;-15
2023/09/25 08:43:57;;;;;;;2.55;1.00;;;21.90;99.90;;;;;;5027235;27;20029;-15
2023/09/25 08:46:25;;;;;;;1.58;0.90;;;22.10;99.90;;;;;;5011777;28;20525;-15
2023/09/25 08:48:52;;;;;;;1.38;0.90;;;22.30;99.90;;;;;;4988775;28;20037;-15
2023/09/25 08:51:20;;;;;;;1.75;1.10;;;22.40;99.90;;;;;;5035868;28;20299;-15
2023/09/25 08:53:46;;;;;;;1.07;0.90;;;22.60;99.90;;;;;;5022709;28;20245;-15
2023/09/25 08:56:15;;;;;;;1.25;0.90;;;22.80;99.90;;;;;;5032414;28;20029;-15
2023/09/25 08:58:45;;;;;;;1.15;0.90;;;22.90;99.90;;;;;;5010460;28;20037;-15
2023/09/25 09:01:11;;;;;;;1.40;0.88;;;23.10;99.90;;;;;;5017421;28;20136;-15
2023/09/25 09:03:37;;;;;;;5.18;1.10;;;23.30;99.90;;;;;;5020434;28;20185;-15
2023/09/25 09:06:04;;;;;;;1.63;1.00;;;23.50;99.90;;;;;;4979559;28;20036;-15
2023/09/25 09:08:30;;;;;;;1.40;1.00;;;23.60;99.90;;;;;;5019396;28;20038;-15
2023/09/25 09:10:56;;;;;;;1.52;1.00;;;23.80;99.90;;;;;;5033985;28;20127;-15
2023/09/25 09:13:22;;;;;;;1.30;1.00;;;24.00;99.90;;;;;;4987709;28;20205;-15
2023/09/25 09:15:49;;;;;;;2.53;1.10;;;24.10;99.90;;;;;;5034689;28;20025;-15
2023/09/25 09:18:25;;;;;;;2.33;1.20;;;24.20;99.90;;;;;;5023912;28;20320;-15
2023/09/25 09:20:52;;;;;;;1.55;1.05;;;24.40;99.90;;;;;;4992189;28;20720;-15
2023/09/25 09:23:18;;;;;;;1.30;1.10;;;24.60;99.90;;;;;;5023871;28;20255;-15
2023/09/25 09:25:48;;;;;;;1.60;1.10;;;24.70;99.90;;;;;;5016551;28;20398;-15
2023/09/25 09:28:13;;;;;;;1.50;1.10;;;24.90;99.90;;;;;;5017735;28;20051;-15
2023/09/25 09:30:41;;;;;;;1.80;1.13;;;25.40;99.90;;;;;;5034001;28;20491;-15
2023/09/25 09:33:10;;;;;;;2.30;0.98;;;25.00;99.90;;;;;;5023033;28;20033;-15
2023/09/25 09:35:37;;;;;;;1.80;1.07;;;25.10;99.50;;;;;;4990768;27;20037;-16
2023/09/25 09:38:05;;;;;;;1.48;1.00;;;25.10;99.90;;;;;;5029561;28;20111;-15
2023/09/25 09:40:31;;;;;;;2.75;1.20;;;25.20;99.90;;;;;;5035370;28;20033;-16
2023/09/25 09:42:58;;;;;;;1.83;1.00;;;26.30;99.90;;;;;;5044898;23;20770;-15
2023/09/25 09:45:26;;;;;;;2.95;1.10;;;25.40;99.90;;;;;;5042239;28;20155;-16
2023/09/25 09:47:56;;;;;;;1.90;0.93;;;25.50;99.90;;;;;;5068946;28;20025;-16
2023/09/25 09:50:27;;;;;;;1.52;1.00;;;25.60;99.30;;;;;;5038019;28;20085;-16
2023/09/25 09:52:53;;;;;;;2.50;1.10;;;25.70;99.90;;;;;;5046175;28;20047;-15
2023/09/25 09:55:21;;;;;;;1.95;1.20;;;25.80;99.90;;;;;;5042949;28;20066;-16
2023/09/25 09:57:50;;;;;;;2.45;1.23;;;25.90;99.60;;;;;;5065264;28;20394;-16
2023/09/25 10:00:17;;;;;;;1.70;1.07;;;26.00;99.10;;;;;;5052320;28;20051;-16
2023/09/25 10:02:45;;;;;;;1.92;1.10;;;26.10;99.90;;;;;;5063299;28;20058;-16
2023/09/25 10:05:13;;;;;;;1.75;1.10;;;26.20;99.90;;;;;;5046174;28;20028;-16
2023/09/25 10:08:11;;;;;;;2.05;1.23;;;26.30;99.90;;;;;;5023797;28;20814;-16
2023/09/25 10:10:40;;;;;;;2.35;1.40;;;26.40;97.30;;;;;;5043574;28;20391;-16
2023/09/25 10:13:18;;;;;;;2.10;1.40;;;26.60;99.90;;;;;;5045000;28;20032;-16
2023/09/25 10:16:00;;;;;;;2.92;1.30;;;26.80;98.60;;;;;;5043656;28;20032;-16
2023/09/25 10:18:29;;;;;;;2.20;1.25;;;26.90;98.60;;;;;;5068590;28;20036;-16
2023/09/25 10:21:10;;;;;;;2.25;1.10;;;27.10;99.90;;;;;;5042861;28;20397;-15
2023/09/25 10:23:39;;;;;;;2.55;1.30;;;27.30;97.90;;;;;;5052488;28;20035;-16
2023/09/25 10:26:17;;;;;;;1.70;1.03;;;27.50;99.40;;;;;;5067123;28;20782;-16
2023/09/25 10:28:43;;;;;;;1.75;1.10;;;27.70;98.90;;;;;;5066196;28;20151;-16
2023/09/25 10:31:20;;;;;;;2.10;1.50;;;27.80;99.90;;;;;;5059710;28;20028;-16
2023/09/25 10:33:59;;;;;;;2.22;1.33;;;28.00;97.00;;;;;;5060642;28;20103;-16
2023/09/25 10:36:42;;;;;;;2.70;1.30;;;28.10;96.30;;;;;;5052426;28;20400;-16
2023/09/25 10:39:08;;;;;;;2.27;1.20;;;28.20;96.90;;;;;;5022108;28;20874;-16
2023/09/25 10:41:35;;;;;;;2.33;1.50;;;28.40;99.50;;;;;;5059425;28;20033;-16
2023/09/25 10:44:01;;;;;;;2.47;1.10;;;28.50;99.40;;;;;;5045071;28;20095;-16
2023/09/25 10:46:27;;;;;;;1.45;1.15;;;28.60;99.20;;;;;;5062005;28;20082;-16
2023/09/25 10:48:57;;;;;;;1.60;1.30;;;28.70;99.40;;;;;;5067815;28;20032;-16
2023/09/25 10:51:23;;;;;;;2.20;1.40;;;28.90;98.20;;;;;;5070776;28;20040;-17
2023/09/25 10:53:49;;;;;;;2.00;1.30;;;29.00;99.60;;;;;;5044357;28;20036;-16
2023/09/25 10:56:16;;;;;;;3.00;1.42;;;29.30;99.50;;;;;;5057503;28;20598;-16
2023/09/25 10:58:47;;;;;;;2.03;1.50;;;29.40;99.30;;;;;;5069082;28;20031;-16
2023/09/25 11:01:14;;;;;;;2.53;1.20;;;29.60;99.50;;;;;;5055929;28;20360;-16
2023/09/25 11:03:41;;;;;;;1.83;1.30;;;29.80;99.50;;;;;;5057771;28;20044;-16
2023/09/25 11:06:09;;;;;;;2.13;1.38;;;30.10;99.90;;;;;;5069617;28;20033;-15
2023/09/25 11:08:35;;;;;;;1.80;1.42;;;30.30;99.90;;;;;;5059091;28;20082;-15
2023/09/25 11:11:02;;;;;;;2.20;1.40;;;30.60;99.80;;;;;;5044072;28;20710;-14
2023/09/25 11:13:28;;;;;;;2.53;1.40;;;30.90;99.50;;;;;;5075174;28;20545;-15
2023/09/25 11:15:56;;;;;;;1.52;1.40;;;31.20;98.80;;;;;;5071049;28;20391;-15
2023/09/25 11:18:23;;;;;;;2.35;1.40;;;29.90;94.40;;;;;;5049289;28;20048;-15
2023/09/25 11:20:51;;;;;;;1.67;1.40;;;31.40;97.40;;;;;;5071237;28;20715;-15
2023/09/25 11:23:17;;;;;;;1.50;1.20;;;31.50;96.40;;;;;;5058770;28;20100;-15
2023/09/25 11:25:49;;;;;;;1.70;1.20;;;31.50;96.90;;;;;;5044634;28;20587;-15
2023/09/25 11:28:22;;;;;;;2.58;1.35;;;31.50;95.70;;;;;;5069633;28;20059;-15
2023/09/25 11:30:49;;;;;;;1.95;1.65;;;31.50;95.20;;;;;;5084018;28;20123;-15
2023/09/25 11:33:19;;;;;;;1.73;0.97;;;31.40;96.10;;;;;;5042787;28;20024;-15
2023/09/25 11:35:52;;;;;;;1.50;1.10;;;31.50;95.10;;;;;;5070077;28;20050;-14
2023/09/25 11:38:28;;;;;;;1.60;1.20;;;31.60;96.30;;;;;;5065512;28;20024;-15
2023/09/25 11:40:54;;;;;;;1.95;1.17;;;31.70;96.70;;;;;;5059850;28;20031;-15
2023/09/25 11:43:23;;;;;;;2.28;1.40;;;31.80;96.30;;;;;;5042734;28;20524;-15
2023/09/25 11:45:49;;;;;;;2.23;1.40;;;31.90;95.80;;;;;;5069029;28;20047;-14
2023/09/25 11:48:18;;;;;;;1.85;1.40;;;32.10;96.90;;;;;;5056473;28;20024;-14
2023/09/25 11:50:44;;;;;;;2.78;1.40;;;32.30;96.90;;;;;;5072026;28;20379;-14
2023/09/25 11:53:09;;;;;;;1.52;1.40;;;32.40;96.70;;;;;;5034804;28;20031;-16
2023/09/25 11:55:36;;;;;;;1.40;1.30;;;32.60;96.30;;;;;;5055578;28;20889;-14
2023/09/25 11:58:07;;;;;;;1.58;1.30;;;32.70;95.70;;;;;;5047595;28;20048;-14
2023/09/25 12:00:33;;;;;;;4.85;1.42;;;32.80;95.00;;;;;;5052724;28;20321;-15
2023/09/25 12:02:59;;;;;;;1.43;1.30;;;32.80;94.50;;;;;;5068386;28;20028;-15
2023/09/25 12:05:27;;;;;;;2.35;1.40;;;32.80;94.00;;;;;;5053209;28;20505;-15
2023/09/25 12:07:53;;;;;;;1.95;1.60;;;32.70;93.60;;;;;;5036682;28;20033;-15
2023/09/25 12:10:19;;;;;;;1.98;1.50;;;32.70;94.00;;;;;;5054187;28;20040;-15
2023/09/25 12:12:47;;;;;;;1.53;1.40;;;32.80;94.30;;;;;;5036615;28;20122;-15
2023/09/25 12:15:14;;;;;;;1.80;1.50;;;33.00;94.30;;;;;;5059616;28;20035;-15
2023/09/25 12:17:40;;;;;;;2.33;1.42;;;33.20;94.20;;;;;;5058728;28;20250;-14
2023/09/25 12:20:19;;;;;;;1.98;1.40;;;33.30;94.30;;;;;;5061391;28;20048;-15
2023/09/25 12:22:46;;;;;;;2.72;1.45;;;33.50;93.60;;;;;;5052796;28;20096;-15
2023/09/25 12:25:16;;;;;;;1.50;1.40;;;33.70;93.40;;;;;;5070158;28;20034;-16
2023/09/25 12:27:45;;;;;;;1.80;1.60;;;33.80;92.20;;;;;;5053359;28;20035;-16
2023/09/25 12:30:14;;;;;;;2.13;1.80;;;33.90;91.80;;;;;;5037892;28;20029;-16
2023/09/25 12:32:41;;;;;;;1.70;1.60;;;34.10;92.60;;;;;;5047895;28;20227;-16
2023/09/25 12:35:08;;;;;;;1.70;1.60;;;34.30;93.20;;;;;;5067069;28;20066;-15
2023/09/25 12:37:34;;;;;;;1.83;1.50;;;34.40;93.00;;;;;;5060763;28;20024;-16
2023/09/25 12:40:00;;;;;;;2.03;1.73;;;34.60;92.80;;;;;;5070502;28;20065;-16
2023/09/25 12:42:28;;;;;;;1.98;1.70;;;34.80;92.80;;;;;;5040408;28;20506;-17
2023/09/25 12:44:54;;;;;;;1.95;1.80;;;34.90;92.90;;;;;;5035136;28;20078;-16
2023/09/25 12:47:21;;;;;;;1.75;1.65;;;35.10;92.40;;;;;;5055843;28;20028;-17